FIMP Airport Information

Runway Information
Runway 14 Length 11056 ft width 148 ft
Elevation 183 ft Threshold 1082 ft Heading 117
Runway 32 Length 11056 ft Width 148 ft
Elevation 98 ft Threshold 0 ft Heading 297
Airport Frequencies
Type A/G Name INFO Frequency 347.6 MHZ
Type APP Name APP Frequency 119.1 MHZ
Type ATIS Name ATIS Frequency 126.2 MHZ
Type TWR Name TWR Frequency 118.1 MHZ
Airport Navaids
Type NDB Name Flic -eE --lFc Frequency 258 KHZ
Type VOR-DME Name Grand Bay Frequency 114800 KHZ
Type NDB Name Plaisance Frequency 343 KHZ
Type VOR-DME Name Plaisance Frequency 113700 KHZ
Airport Weather Information & NOTAM
ADDS - METARS form results

(0858 UTC 20 July 2018)
 
METAR text: FIMP 200800Z 11012KT 9999 FEW017 SCT050 23/14 Q1025
Conditions at: FIMP (PLAISANCE , MU) observed 0800 UTC 20 July 2018
Temperature: 23.0°C (73°F)
Dewpoint: 14.0°C (57°F) [RH = 57%]
Pressure (altimeter): 30.27 inches Hg (1025.0 mb)
Winds: from the ESE (110 degrees) at 14 MPH (12 knots; 6.2 m/s)
Visibility: 6 or more miles (10+ km)
Ceiling: at least 12,000 feet AGL
Clouds: few clouds at 1700 feet AGL
scattered clouds at 5000 feet AGL
Weather: no significant weather observed at this time